Time;durP1;ratioP1;P1;durP2;ratioP2;P2;SDS_P1;SDS_P2;PMS_P1;PMS_P2;Temp;Humidity;BMP_temperature;BMP_pressure;BME280_temperature;BME280_humidity;BME280_pressure;Samples;Min_cycle;Max_cycle;Signal;HPM_P1;HPM_P2
2022/11/23 00:00:37;;;;;;;31.77;20.05;;;7.00;99.90;;;;;;5092233;28;20144;-80
2022/11/23 00:03:03;;;;;;;34.45;20.05;;;7.10;99.90;;;;;;5092061;28;20052;-80
2022/11/23 00:05:30;;;;;;;35.92;21.40;;;7.30;99.90;;;;;;5091840;28;20040;-79
2022/11/23 00:07:56;;;;;;;36.13;21.48;;;8.40;99.90;;;;;;5074980;28;20047;-79
2022/11/23 00:10:21;;;;;;;37.72;21.42;;;8.00;99.90;;;;;;5091610;28;20507;-78
2022/11/23 00:12:47;;;;;;;38.35;21.83;;;7.50;99.90;;;;;;5091931;28;20055;-79
2022/11/23 00:15:14;;;;;;;38.10;22.73;;;7.30;99.90;;;;;;5092914;28;20119;-79
2022/11/23 00:17:40;;;;;;;33.25;22.35;;;7.50;99.90;;;;;;5092955;28;20070;-79
2022/11/23 00:20:07;;;;;;;37.38;22.60;;;7.20;99.90;;;;;;5092866;28;20484;-79
2022/11/23 00:22:33;;;;;;;37.33;21.20;;;7.70;99.90;;;;;;5091240;28;20051;-79
2022/11/23 00:24:59;;;;;;;;;;;7.10;99.90;;;;;;5093251;28;20132;-79
2022/11/23 00:27:24;;;;;;;34.72;20.98;;;8.40;99.90;;;;;;5092737;28;19971;-81
2022/11/23 00:29:50;;;;;;;39.20;21.75;;;8.30;99.90;;;;;;5092589;28;20050;-80
2022/11/23 00:32:16;;;;;;;35.40;22.60;;;7.00;99.90;;;;;;5093001;28;20113;-79
2022/11/23 00:34:41;;;;;;;38.85;22.95;;;7.60;99.90;;;;;;5092839;28;20059;-81
2022/11/23 00:37:07;;;;;;;34.08;22.58;;;7.30;99.90;;;;;;5074450;28;20153;-84
2022/11/23 00:39:33;;;;;;;39.95;22.42;;;8.10;99.90;;;;;;5091583;28;20052;-81
2022/11/23 00:41:59;;;;;;;34.20;22.10;;;7.40;99.90;;;;;;5092449;28;20055;-79
2022/11/23 00:44:24;;;;;;;38.90;22.40;;;7.20;99.90;;;;;;5091594;28;20040;-83
2022/11/23 00:46:50;;;;;;;37.78;22.08;;;7.50;99.90;;;;;;5092628;28;20079;-82
2022/11/23 00:49:16;;;;;;;36.03;21.25;;;7.40;99.90;;;;;;5074524;28;20480;-82
2022/11/23 00:51:41;;;;;;;39.28;22.80;;;7.30;99.90;;;;;;5092326;28;20439;-80
2022/11/23 00:54:07;;;;;;;37.47;20.83;;;7.30;99.90;;;;;;5092781;28;20044;-80
2022/11/23 00:56:34;;;;;;;41.90;22.33;;;7.40;99.90;;;;;;5092435;28;20044;-80
2022/11/23 00:59:01;;;;;;;38.60;20.10;;;7.40;99.90;;;;;;5092455;28;20052;-82
2022/11/23 01:01:38;;;;;;;37.53;21.40;;;7.40;99.90;;;;;;5092387;28;20059;-80
2022/11/23 01:04:06;;;;;;;34.40;20.95;;;8.50;99.90;;;;;;5092490;28;20055;-81
2022/11/23 01:06:34;;;;;;;30.67;20.10;;;7.50;99.90;;;;;;5074398;28;20069;-80
2022/11/23 01:09:10;;;;;;;34.67;20.77;;;8.20;99.90;;;;;;5091971;28;20481;-80
2022/11/23 01:11:36;;;;;;;36.15;20.63;;;7.50;99.90;;;;;;5092140;28;20496;-80
2022/11/23 01:14:02;;;;;;;32.33;19.95;;;7.90;99.90;;;;;;5092682;28;20052;-81
2022/11/23 01:16:30;;;;;;;34.40;21.00;;;8.10;99.90;;;;;;5092281;28;20425;-81
2022/11/23 01:18:58;;;;;;;33.60;20.52;;;7.60;99.90;;;;;;5092253;28;20086;-80
2022/11/23 01:21:25;;;;;;;35.63;19.08;;;8.00;99.90;;;;;;5091936;28;20048;-80
2022/11/23 01:23:52;;;;;;;40.85;20.63;;;7.60;99.90;;;;;;5092678;28;20048;-80
2022/11/23 01:26:18;;;;;;;35.38;19.33;;;7.70;99.90;;;;;;5092214;28;20083;-81
2022/11/23 01:28:44;;;;;;;33.28;18.83;;;8.00;99.90;;;;;;5090848;28;20048;-80
2022/11/23 01:31:13;;;;;;;33.55;17.88;;;7.80;99.90;;;;;;5092163;28;20097;-82
2022/11/23 01:33:39;;;;;;;32.30;18.42;;;7.70;99.90;;;;;;5092120;28;20060;-80
2022/11/23 01:36:12;;;;;;;;;;;7.90;99.90;;;;;;5092288;28;20048;-80
2022/11/23 01:38:38;;;;;;;29.13;17.80;;;7.60;99.90;;;;;;5074151;28;19928;-80
2022/11/23 01:41:05;;;;;;;;;;;8.00;99.90;;;;;;5092626;28;20062;-80
2022/11/23 01:43:30;;;;;;;29.85;17.00;;;7.60;99.90;;;;;;5091142;28;19923;-80
2022/11/23 01:45:58;;;;;;;32.22;18.52;;;8.70;99.90;;;;;;5091802;28;20051;-80
2022/11/23 01:48:32;;;;;;;33.13;17.45;;;7.40;99.90;;;;;;5090927;28;20044;-80
2022/11/23 01:51:01;;;;;;;34.00;17.30;;;8.00;99.90;;;;;;5092155;28;20432;-80
2022/11/23 01:53:28;;;;;;;34.65;17.80;;;8.60;99.90;;;;;;5094697;28;20114;-80
2022/11/23 01:55:58;;;;;;;33.97;18.45;;;8.10;99.90;;;;;;5094583;28;20392;-80
2022/11/23 01:58:26;;;;;;;33.13;18.42;;;7.90;99.90;;;;;;5095612;28;20043;-80
2022/11/23 02:00:52;;;;;;;30.58;17.80;;;8.30;99.90;;;;;;5077595;28;20217;-79
2022/11/23 02:03:18;;;;;;;38.60;18.83;;;8.10;99.90;;;;;;5094257;28;20131;-79
2022/11/23 02:05:48;;;;;;;35.38;18.80;;;8.00;99.90;;;;;;5094372;28;20052;-80
2022/11/23 02:08:16;;;;;;;34.90;18.83;;;8.00;99.90;;;;;;5094212;28;20056;-80
2022/11/23 02:10:41;;;;;;;32.30;19.67;;;8.60;99.90;;;;;;5095835;28;20375;-80
2022/11/23 02:13:10;;;;;;;34.45;18.38;;;7.60;99.90;;;;;;5095398;28;20131;-80
2022/11/23 02:15:36;;;;;;;33.65;18.33;;;7.60;99.90;;;;;;5095177;28;20044;-79
2022/11/23 02:18:04;;;;;;;31.30;18.23;;;8.10;99.90;;;;;;5094840;28;20055;-80
2022/11/23 02:20:30;;;;;;;38.90;17.95;;;7.90;99.90;;;;;;5094030;28;20055;-79
2022/11/23 02:23:25;;;;;;;30.75;18.23;;;7.70;99.90;;;;;;5094033;28;20047;-80
2022/11/23 02:26:02;;;;;;;34.83;17.63;;;8.10;99.90;;;;;;5094968;28;20500;-81
2022/11/23 02:28:36;;;;;;;32.88;17.67;;;7.70;99.90;;;;;;5095040;28;20096;-80
2022/11/23 02:31:02;;;;;;;32.00;18.63;;;7.70;99.90;;;;;;5093932;28;20099;-80
2022/11/23 02:33:29;;;;;;;35.42;17.80;;;8.80;99.90;;;;;;5093323;28;20095;-81
2022/11/23 02:35:58;;;;;;;34.30;18.13;;;7.90;99.90;;;;;;5094789;28;20048;-80
2022/11/23 02:38:29;;;;;;;37.58;18.42;;;8.20;99.90;;;;;;5093778;28;20366;-80
2022/11/23 02:40:55;;;;;;;33.00;18.98;;;8.10;99.90;;;;;;5094752;28;20427;-80
2022/11/23 02:43:20;;;;;;;32.90;18.02;;;8.40;99.90;;;;;;5093736;28;20173;-80
2022/11/23 02:45:49;;;;;;;36.10;18.38;;;8.90;99.90;;;;;;5093281;28;20044;-80
2022/11/23 02:48:14;;;;;;;33.17;17.30;;;7.90;99.90;;;;;;5094154;28;20098;-80
2022/11/23 02:50:40;;;;;;;40.80;19.08;;;7.70;99.90;;;;;;5093393;28;20087;-80
2022/11/23 02:53:06;;;;;;;28.60;17.33;;;7.90;99.90;;;;;;5093467;28;20044;-79
2022/11/23 02:55:32;;;;;;;37.05;19.25;;;8.00;99.90;;;;;;5093125;28;20472;-80
2022/11/23 02:57:57;;;;;;;37.08;18.27;;;8.00;99.90;;;;;;5093097;28;20044;-79
2022/11/23 03:00:23;;;;;;;34.97;17.98;;;8.10;99.90;;;;;;5094090;28;20492;-80
2022/11/23 03:02:49;;;;;;;33.00;17.48;;;8.40;99.90;;;;;;5093854;28;20085;-79
2022/11/23 03:05:14;;;;;;;39.33;17.95;;;7.80;99.90;;;;;;5092940;28;20069;-80
2022/11/23 03:07:40;;;;;;;38.42;19.42;;;8.00;99.90;;;;;;5094121;28;20039;-80
2022/11/23 03:10:06;;;;;;;40.50;18.73;;;8.50;99.90;;;;;;5094101;28;20054;-81
2022/11/23 03:12:32;;;;;;;;;;;7.90;99.90;;;;;;5094557;28;20048;-80
2022/11/23 03:14:58;;;;;;;37.97;18.45;;;7.80;99.90;;;;;;5093815;28;19947;-80
2022/11/23 03:17:23;;;;;;;35.17;18.30;;;8.10;99.90;;;;;;5093805;28;20079;-79
2022/11/23 03:19:49;;;;;;;34.95;18.73;;;8.10;99.90;;;;;;5094010;28;20387;-80
2022/11/23 03:22:15;;;;;;;39.70;19.33;;;9.10;99.90;;;;;;5093882;28;20048;-79
2022/11/23 03:24:40;;;;;;;37.45;18.75;;;8.00;99.90;;;;;;5094110;28;20054;-79
2022/11/23 03:27:06;;;;;;;37.90;18.13;;;9.20;99.90;;;;;;5093483;28;20134;-80
2022/11/23 03:29:32;;;;;;;34.47;19.15;;;8.20;99.90;;;;;;5093360;28;20388;-80
2022/11/23 03:31:58;;;;;;;43.75;20.30;;;7.50;99.90;;;;;;5093259;28;20047;-80
2022/11/23 03:34:23;;;;;;;41.42;19.95;;;8.10;99.90;;;;;;5093814;28;20132;-79
2022/11/23 03:36:49;;;;;;;41.50;19.48;;;8.00;99.90;;;;;;5092529;28;20056;-80
2022/11/23 03:39:15;;;;;;;39.25;19.38;;;8.60;99.90;;;;;;5093627;28;20418;-80
2022/11/23 03:41:40;;;;;;;46.35;19.92;;;8.60;99.90;;;;;;5092446;28;20131;-81
2022/11/23 03:44:06;;;;;;;40.60;19.83;;;7.50;99.90;;;;;;5075582;28;20044;-80
2022/11/23 03:46:32;;;;;;;42.70;20.13;;;7.60;99.90;;;;;;5092837;28;20048;-80
2022/11/23 03:48:57;;;;;;;44.88;20.70;;;7.70;99.90;;;;;;5092063;28;20143;-80
2022/11/23 03:51:23;;;;;;;42.80;20.35;;;8.50;99.90;;;;;;5075544;28;20058;-80
2022/11/23 03:53:49;;;;;;;44.58;20.75;;;7.90;99.90;;;;;;5093387;28;20083;-80
2022/11/23 03:56:15;;;;;;;42.53;21.42;;;8.10;99.90;;;;;;5093715;28;20044;-80
2022/11/23 03:58:41;;;;;;;41.45;20.13;;;8.60;99.90;;;;;;5091911;28;20499;-80
2022/11/23 04:01:06;;;;;;;47.10;21.20;;;8.90;99.90;;;;;;5093149;28;20087;-80
2022/11/23 04:03:32;;;;;;;43.70;21.33;;;7.90;99.90;;;;;;5093122;28;20351;-80
2022/11/23 04:05:59;;;;;;;48.05;22.77;;;8.20;99.90;;;;;;5093132;28;20476;-79
2022/11/23 04:08:24;;;;;;;45.53;22.27;;;8.10;99.90;;;;;;5093043;28;20059;-79
2022/11/23 04:10:50;;;;;;;54.08;22.48;;;7.80;99.90;;;;;;5093034;28;20477;-79
2022/11/23 04:13:16;;;;;;;54.45;21.75;;;8.10;99.90;;;;;;5093010;28;20051;-79
2022/11/23 04:15:41;;;;;;;50.30;22.23;;;8.80;99.90;;;;;;5090961;28;20127;-79
2022/11/23 04:18:07;;;;;;;44.08;22.42;;;8.00;99.90;;;;;;5092805;28;20052;-79
2022/11/23 04:20:33;;;;;;;51.70;22.77;;;7.90;99.90;;;;;;5092803;28;20044;-79
2022/11/23 04:22:58;;;;;;;51.30;23.80;;;7.90;99.90;;;;;;5091581;28;20048;-79
2022/11/23 04:25:24;;;;;;;49.10;22.67;;;7.90;99.90;;;;;;5092954;28;20055;-79
2022/11/23 04:27:49;;;;;;;52.90;23.50;;;8.70;99.90;;;;;;5092508;28;20480;-80
2022/11/23 04:30:15;;;;;;;57.33;24.45;;;8.40;99.90;;;;;;5092365;28;20040;-80
2022/11/23 04:32:44;;;;;;;52.38;24.02;;;9.90;99.90;;;;;;5092696;28;20148;-80
2022/11/23 04:35:10;;;;;;;55.63;23.95;;;7.90;99.90;;;;;;5091628;28;20048;-80
2022/11/23 04:37:35;;;;;;;54.28;24.35;;;8.20;99.90;;;;;;5091489;28;20388;-81
2022/11/23 04:40:01;;;;;;;57.72;24.92;;;7.70;99.90;;;;;;5091608;28;20048;-80
2022/11/23 04:42:27;;;;;;;56.90;24.42;;;7.70;99.90;;;;;;5091489;28;20090;-80
2022/11/23 04:44:53;;;;;;;54.83;25.02;;;7.80;99.90;;;;;;5092061;28;20048;-80
2022/11/23 04:47:18;;;;;;;55.55;24.80;;;8.20;99.90;;;;;;5092555;28;20087;-81
2022/11/23 04:49:44;;;;;;;56.00;25.70;;;7.90;99.90;;;;;;5092578;28;20085;-80
2022/11/23 04:52:11;;;;;;;56.85;25.80;;;7.80;99.90;;;;;;5092546;28;20130;-81
2022/11/23 04:54:36;;;;;;;58.92;25.45;;;7.90;99.90;;;;;;5092610;28;20052;-81
2022/11/23 04:57:02;;;;;;;56.00;25.25;;;7.90;99.90;;;;;;5091456;28;20125;-81
2022/11/23 04:59:28;;;;;;;55.75;25.30;;;7.90;99.90;;;;;;5091390;28;20056;-82
2022/11/23 05:01:53;;;;;;;60.80;25.27;;;7.60;99.90;;;;;;5092450;28;20044;-81
2022/11/23 05:04:19;;;;;;;59.15;26.58;;;8.90;99.90;;;;;;5092498;28;20052;-80
2022/11/23 05:06:45;;;;;;;58.28;27.55;;;7.80;99.90;;;;;;5092383;28;20091;-80
2022/11/23 05:09:11;;;;;;;59.67;27.20;;;8.10;99.90;;;;;;5092249;28;20090;-80
2022/11/23 05:11:37;;;;;;;57.58;27.42;;;8.10;99.90;;;;;;5092180;28;20080;-80
2022/11/23 05:14:03;;;;;;;57.03;27.45;;;7.70;99.90;;;;;;5091177;28;20169;-81
2022/11/23 05:16:29;;;;;;;60.45;28.05;;;7.90;99.90;;;;;;5091354;28;20048;-80
2022/11/23 05:18:54;;;;;;;62.95;29.20;;;9.30;99.90;;;;;;5092271;28;20468;-80
2022/11/23 05:21:20;;;;;;;57.20;28.55;;;8.10;99.90;;;;;;5092325;28;20093;-81
2022/11/23 05:23:46;;;;;;;55.78;27.90;;;7.80;99.90;;;;;;5091268;28;20047;-81
2022/11/23 05:26:11;;;;;;;66.68;28.83;;;7.70;99.90;;;;;;5091992;28;20084;-81
2022/11/23 05:28:37;;;;;;;62.35;30.10;;;8.20;99.90;;;;;;5094244;28;20044;-81
2022/11/23 05:31:03;;;;;;;67.20;29.40;;;8.20;99.90;;;;;;5096242;28;20054;-80
2022/11/23 05:33:29;;;;;;;63.05;28.77;;;7.90;99.90;;;;;;5096408;28;20056;-80
2022/11/23 05:35:55;;;;;;;58.67;28.58;;;8.20;99.90;;;;;;5095129;28;20048;-80
2022/11/23 05:38:21;;;;;;;64.97;29.10;;;7.90;99.90;;;;;;5094593;28;20052;-80
2022/11/23 05:40:46;;;;;;;66.25;29.73;;;8.10;99.90;;;;;;5094525;28;20070;-80
2022/11/23 05:43:12;;;;;;;67.05;29.55;;;7.80;99.90;;;;;;5095815;28;20080;-80
2022/11/23 05:45:38;;;;;;;66.00;30.27;;;8.00;99.90;;;;;;5095712;28;20109;-80
2022/11/23 05:48:04;;;;;;;67.75;29.33;;;8.40;99.90;;;;;;5077438;28;20052;-79
2022/11/23 05:50:30;;;;;;;60.42;29.95;;;8.20;99.90;;;;;;5095569;28;20062;-79
2022/11/23 05:52:56;;;;;;;61.50;29.92;;;8.20;99.90;;;;;;5095651;28;20399;-79
2022/11/23 05:55:22;;;;;;;;;;;8.00;99.90;;;;;;5095826;28;20054;-80
2022/11/23 05:57:48;;;;;;;71.35;30.70;;;8.50;99.90;;;;;;5095482;28;20006;-79
2022/11/23 06:00:14;;;;;;;71.18;32.63;;;8.00;99.90;;;;;;5094397;28;20556;-79
2022/11/23 06:02:40;;;;;;;64.18;29.63;;;8.00;99.90;;;;;;5095458;28;20056;-79
2022/11/23 06:05:06;;;;;;;63.88;31.58;;;8.40;99.90;;;;;;5095237;28;20097;-79
2022/11/23 06:07:33;;;;;;;67.15;30.83;;;8.00;99.90;;;;;;5095405;28;20353;-80
2022/11/23 06:09:58;;;;;;;;;;;9.10;99.90;;;;;;5095392;28;20040;-80
2022/11/23 06:12:24;;;;;;;66.15;31.13;;;8.10;99.90;;;;;;5095193;28;20249;-80
2022/11/23 06:14:50;;;;;;;72.60;32.38;;;7.60;99.90;;;;;;5095226;28;20066;-80
2022/11/23 06:17:16;;;;;;;66.97;31.38;;;8.70;99.90;;;;;;5095193;28;20047;-80
2022/11/23 06:19:41;;;;;;;71.70;33.53;;;8.50;99.90;;;;;;5093845;28;20434;-79
2022/11/23 06:22:07;;;;;;;60.80;28.52;;;8.00;99.90;;;;;;5095024;28;20055;-79
2022/11/23 06:24:33;;;;;;;59.13;29.15;;;7.70;99.90;;;;;;5094735;28;20095;-79
2022/11/23 06:26:59;;;;;;;55.60;29.25;;;8.00;99.90;;;;;;5093773;28;20044;-80
2022/11/23 06:29:24;;;;;;;62.25;30.08;;;9.40;99.90;;;;;;5094783;28;20040;-81
2022/11/23 06:31:50;;;;;;;64.05;29.83;;;8.40;99.90;;;;;;5094865;28;20090;-80
2022/11/23 06:34:16;;;;;;;56.25;26.85;;;8.10;99.90;;;;;;5076401;28;20550;-80
2022/11/23 06:36:42;;;;;;;58.85;28.45;;;7.90;99.90;;;;;;5093234;28;20052;-81
2022/11/23 06:39:08;;;;;;;61.83;27.75;;;7.90;99.90;;;;;;5092991;28;20503;-80
2022/11/23 06:41:34;;;;;;;57.58;27.35;;;7.80;99.90;;;;;;5094686;28;20083;-79
2022/11/23 06:44:00;;;;;;;51.20;25.05;;;8.00;99.90;;;;;;5094702;28;20135;-80
2022/11/23 06:46:26;;;;;;;58.58;26.92;;;7.90;99.90;;;;;;5094647;28;20458;-80
2022/11/23 06:48:52;;;;;;;56.58;26.65;;;9.10;99.90;;;;;;5093183;28;20063;-80
2022/11/23 06:51:17;;;;;;;54.45;26.75;;;7.80;99.90;;;;;;5094510;28;20132;-79
2022/11/23 06:53:43;;;;;;;50.58;25.60;;;7.90;99.90;;;;;;5094112;28;20476;-80
2022/11/23 06:56:09;;;;;;;50.33;25.77;;;7.40;99.90;;;;;;5093170;28;20151;-80
2022/11/23 06:58:35;;;;;;;53.67;26.73;;;7.60;99.90;;;;;;5093357;28;20051;-79
2022/11/23 07:01:01;;;;;;;;;;;7.80;99.90;;;;;;5094653;28;20067;-79
2022/11/23 07:03:27;;;;;;;44.53;23.80;;;7.80;99.90;;;;;;5094174;28;19924;-80
2022/11/23 07:05:53;;;;;;;46.40;24.08;;;7.80;99.90;;;;;;5094248;28;20044;-80
2022/11/23 07:08:19;;;;;;;50.70;24.77;;;7.70;99.90;;;;;;5093487;28;20106;-80
2022/11/23 07:10:45;;;;;;;54.25;24.63;;;7.70;99.90;;;;;;5093827;28;20519;-79
2022/11/23 07:13:11;;;;;;;48.60;25.02;;;7.90;99.90;;;;;;5094641;28;20052;-78
2022/11/23 07:15:37;;;;;;;;;;;8.60;99.90;;;;;;5091281;28;20048;-80
2022/11/23 07:18:04;;;;;;;44.28;23.02;;;7.70;99.90;;;;;;5094257;28;20279;-81
2022/11/23 07:20:30;;;;;;;54.45;25.60;;;7.90;99.90;;;;;;5111342;28;20053;-81
2022/11/23 07:23:00;;;;;;;56.78;25.23;;;8.10;99.90;;;;;;5112908;28;20043;-80
2022/11/23 07:25:27;;;;;;;45.30;24.42;;;7.70;99.90;;;;;;5112297;28;20052;-81
2022/11/23 07:28:00;;;;;;;54.10;24.52;;;7.90;99.90;;;;;;5112666;28;20055;-81
2022/11/23 07:30:27;;;;;;;48.13;22.80;;;7.90;99.90;;;;;;5112787;28;20050;-76
2022/11/23 07:32:53;;;;;;;45.78;22.85;;;7.60;99.90;;;;;;5111791;28;20496;-74
2022/11/23 07:35:19;;;;;;;48.85;23.48;;;7.60;99.90;;;;;;5113221;28;20051;-76
2022/11/23 07:37:46;;;;;;;46.13;23.50;;;;;;;;;;5112638;28;20052;-74
2022/11/23 07:40:12;;;;;;;47.03;23.58;;;7.90;99.90;;;;;;5111970;28;20130;-75
2022/11/23 07:42:38;;;;;;;40.67;21.77;;;7.80;99.90;;;;;;5094724;28;20043;-74
2022/11/23 07:45:05;;;;;;;41.63;22.50;;;7.80;99.90;;;;;;5094336;28;20039;-73
2022/11/23 07:47:31;;;;;;;44.78;20.88;;;7.90;99.90;;;;;;5113067;28;20194;-75
2022/11/23 07:49:56;;;;;;;;;;;7.70;99.90;;;;;;5112560;28;20066;-75
2022/11/23 07:52:22;;;;;;;46.95;20.73;;;7.70;99.90;;;;;;5111470;28;19920;-74
2022/11/23 07:54:48;;;;;;;42.25;20.08;;;7.80;99.90;;;;;;5111913;28;20134;-75
2022/11/23 07:57:14;;;;;;;38.85;19.08;;;7.90;99.90;;;;;;5111970;28;20051;-76
2022/11/23 07:59:39;;;;;;;35.50;19.42;;;7.90;99.90;;;;;;5110975;28;20036;-74
2022/11/23 08:02:08;;;;;;;39.40;19.35;;;8.00;99.90;;;;;;5112971;28;20084;-73
2022/11/23 08:04:34;;;;;;;34.25;18.40;;;8.10;99.90;;;;;;5112655;28;20043;-74
2022/11/23 08:07:01;;;;;;;35.65;17.40;;;8.70;99.90;;;;;;5112158;28;20051;-75
2022/11/23 08:09:27;;;;;;;35.92;16.63;;;8.70;99.90;;;;;;5112611;28;20190;-75
2022/11/23 08:11:52;;;;;;;28.63;15.38;;;9.20;99.90;;;;;;5112891;28;20047;-77
2022/11/23 08:14:18;;;;;;;35.75;15.85;;;8.30;99.90;;;;;;5095788;28;20047;-76
2022/11/23 08:16:48;;;;;;;30.92;14.43;;;8.20;99.90;;;;;;5092537;28;20047;-76
2022/11/23 08:19:13;;;;;;;32.58;16.25;;;8.50;99.90;;;;;;5096101;28;20491;-77
2022/11/23 08:21:39;;;;;;;31.80;14.43;;;8.10;99.90;;;;;;5110119;28;20167;-77
2022/11/23 08:24:05;;;;;;;24.75;13.80;;;8.30;99.90;;;;;;5072542;28;20058;-77
2022/11/23 08:26:30;;;;;;;27.20;13.48;;;7.90;99.90;;;;;;5090843;28;20040;-77
2022/11/23 08:28:56;;;;;;;27.33;12.10;;;9.60;99.90;;;;;;5074454;28;20048;-77
2022/11/23 08:31:22;;;;;;;24.70;13.13;;;8.00;99.90;;;;;;5092262;28;20394;-76
2022/11/23 08:33:47;;;;;;;21.65;13.15;;;7.90;99.90;;;;;;5074325;28;20105;-78
2022/11/23 08:36:13;;;;;;;22.85;12.70;;;8.10;99.90;;;;;;5092373;28;20101;-77
2022/11/23 08:38:39;;;;;;;31.27;13.10;;;8.10;99.90;;;;;;5092867;28;20040;-76
2022/11/23 08:41:04;;;;;;;23.05;12.18;;;8.30;99.90;;;;;;5074803;28;20128;-77
2022/11/23 08:43:30;;;;;;;24.92;12.10;;;9.10;99.90;;;;;;5058172;28;20047;-78
2022/11/23 08:45:59;;;;;;;20.55;11.65;;;8.90;99.90;;;;;;5092495;28;20055;-76
2022/11/23 08:48:26;;;;;;;26.50;11.70;;;8.30;99.90;;;;;;5108164;28;20131;-78
2022/11/23 08:50:52;;;;;;;;;;;8.00;99.90;;;;;;5091406;28;20093;-76
2022/11/23 08:53:17;;;;;;;21.38;11.13;;;8.30;99.90;;;;;;5092498;28;19927;-76
2022/11/23 08:55:44;;;;;;;21.90;11.27;;;8.30;99.90;;;;;;5092464;28;20043;-76
2022/11/23 08:58:09;;;;;;;26.10;11.63;;;8.30;99.90;;;;;;5091101;28;20052;-80
2022/11/23 09:00:35;;;;;;;29.55;10.88;;;8.20;99.90;;;;;;5092439;28;20067;-76
2022/11/23 09:03:02;;;;;;;25.52;11.52;;;8.30;99.90;;;;;;5096428;28;20392;-78
2022/11/23 09:05:28;;;;;;;27.25;12.02;;;8.50;99.90;;;;;;5094978;28;20062;-76
2022/11/23 09:07:54;;;;;;;;;;;8.80;99.90;;;;;;5096861;28;20044;-77
2022/11/23 09:10:20;;;;;;;22.50;10.57;;;8.70;99.90;;;;;;5095086;28;19920;-76
2022/11/23 09:12:47;;;;;;;25.20;10.40;;;8.60;99.90;;;;;;5096280;28;20046;-76
2022/11/23 09:15:13;;;;;;;18.45;9.75;;;8.70;99.90;;;;;;5095253;28;20056;-75
2022/11/23 09:17:38;;;;;;;21.60;10.32;;;8.70;99.90;;;;;;5096173;28;20051;-76
2022/11/23 09:20:05;;;;;;;18.65;9.50;;;8.50;99.90;;;;;;5094748;28;20400;-75
2022/11/23 09:22:30;;;;;;;;;;;8.80;99.90;;;;;;5096544;28;20040;-76
2022/11/23 09:24:56;;;;;;;16.77;8.00;;;8.50;99.90;;;;;;5094798;28;20003;-76
2022/11/23 09:27:22;;;;;;;23.50;9.15;;;8.20;99.90;;;;;;5096046;28;20048;-76
2022/11/23 09:29:47;;;;;;;20.67;9.00;;;8.70;99.90;;;;;;5095993;28;20052;-77
2022/11/23 09:32:13;;;;;;;16.17;8.70;;;8.70;99.90;;;;;;5094770;28;20126;-76
2022/11/23 09:34:39;;;;;;;21.33;8.80;;;8.90;99.90;;;;;;5077069;28;20052;-76
2022/11/23 09:37:05;;;;;;;20.42;8.90;;;9.50;99.90;;;;;;5095827;28;20055;-75
2022/11/23 09:39:30;;;;;;;17.05;8.48;;;10.00;99.90;;;;;;5094438;28;20134;-76
2022/11/23 09:42:47;;;;;;;16.80;8.52;;;8.70;99.90;;;;;;5095808;28;20135;-78
2022/11/23 09:45:33;;;;;;;20.70;8.15;;;8.80;99.90;;;;;;5032936;28;20049;-77
2022/11/23 09:48:25;;;;;;;20.48;8.35;;;8.80;99.90;;;;;;5105884;28;20056;-76
2022/11/23 09:51:09;;;;;;;16.90;7.55;;;8.80;99.90;;;;;;5094570;28;20480;-76
2022/11/23 09:53:45;;;;;;;19.13;7.75;;;8.60;99.90;;;;;;5095601;28;20047;-76
2022/11/23 09:56:24;;;;;;;17.63;7.35;;;8.80;99.90;;;;;;5095520;28;20118;-76
2022/11/23 09:58:54;;;;;;;14.50;7.35;;;8.80;99.90;;;;;;5094343;28;20085;-75
2022/11/23 10:01:20;;;;;;;20.08;6.97;;;8.90;99.90;;;;;;5093868;28;20557;-76
2022/11/23 10:03:46;;;;;;;17.80;7.47;;;8.90;99.90;;;;;;5095005;28;20040;-80
2022/11/23 10:06:25;;;;;;;;;;;8.80;99.90;;;;;;5077775;28;20092;-77
2022/11/23 10:09:10;;;;;;;12.90;7.18;;;9.00;99.90;;;;;;5094108;28;19955;-75
2022/11/23 10:11:48;;;;;;;19.42;6.20;;;9.10;99.90;;;;;;5093308;28;20056;-77
2022/11/23 10:14:32;;;;;;;12.90;6.40;;;9.20;99.90;;;;;;5110356;28;20051;-75
2022/11/23 10:17:24;;;;;;;16.70;6.20;;;9.20;99.90;;;;;;5093885;28;20056;-76
2022/11/23 10:20:14;;;;;;;15.38;6.00;;;9.30;99.90;;;;;;5094499;28;20407;-75
2022/11/23 10:22:57;;;;;;;12.00;5.78;;;9.40;99.90;;;;;;5094963;28;20087;-76
2022/11/23 10:25:24;;;;;;;14.23;5.65;;;9.30;99.90;;;;;;5094038;28;20059;-77
2022/11/23 10:27:55;;;;;;;16.63;6.00;;;9.40;99.90;;;;;;5094911;28;20086;-75
2022/11/23 10:30:21;;;;;;;14.27;5.68;;;9.50;99.90;;;;;;5094831;28;20040;-75
2022/11/23 10:32:53;;;;;;;16.45;5.95;;;9.30;99.90;;;;;;5093018;28;20048;-87
2022/11/23 10:35:34;;;;;;;14.35;5.50;;;10.40;99.90;;;;;;5094825;28;20403;-76
2022/11/23 10:38:17;;;;;;;18.23;5.72;;;9.70;99.90;;;;;;5093755;28;20472;-75
2022/11/23 10:41:18;;;;;;;14.63;5.18;;;9.70;99.90;;;;;;5094704;28;20682;-75
2022/11/23 10:44:05;;;;;;;15.52;5.82;;;9.50;99.90;;;;;;5090016;28;20059;-76
2022/11/23 10:46:39;;;;;;;17.42;5.80;;;9.60;99.90;;;;;;5076433;28;20055;-75
2022/11/23 10:49:22;;;;;;;12.30;5.95;;;9.70;99.90;;;;;;5094340;28;20545;-75
2022/11/23 10:51:52;;;;;;;19.83;6.05;;;9.30;99.90;;;;;;5094503;28;20047;-78
2022/11/23 10:54:23;;;;;;;21.63;6.78;;;9.10;99.90;;;;;;5093359;28;20086;-75
2022/11/23 10:56:51;;;;;;;17.02;6.57;;;9.10;99.90;;;;;;5094326;28;20062;-76
2022/11/23 10:59:35;;;;;;;19.73;5.93;;;9.00;99.90;;;;;;5094336;28;20054;-78
2022/11/23 11:02:13;;;;;;;15.05;5.68;;;9.30;99.90;;;;;;5093243;28;20055;-76
2022/11/23 11:04:39;;;;;;;21.45;6.13;;;9.20;99.90;;;;;;5076142;28;20077;-76
2022/11/23 11:07:30;;;;;;;20.40;6.13;;;9.30;99.90;;;;;;5094252;28;20040;-75
2022/11/23 11:09:58;;;;;;;19.70;6.47;;;9.30;99.90;;;;;;5094065;28;20042;-75
2022/11/23 11:12:26;;;;;;;25.13;7.70;;;9.10;99.90;;;;;;5092872;28;20064;-76
2022/11/23 11:15:01;;;;;;;16.80;6.05;;;9.60;99.90;;;;;;5092738;28;20468;-75
2022/11/23 11:17:33;;;;;;;21.83;6.05;;;10.00;99.90;;;;;;5092921;28;20051;-76
2022/11/23 11:20:23;;;;;;;18.33;6.63;;;9.70;99.90;;;;;;5093937;28;20036;-75
2022/11/23 11:22:49;;;;;;;19.23;6.25;;;9.90;99.90;;;;;;5091612;28;20066;-76
2022/11/23 11:25:30;;;;;;;19.90;6.45;;;9.80;99.90;;;;;;5092121;28;20085;-78
2022/11/23 11:27:56;;;;;;;14.88;5.95;;;10.00;99.90;;;;;;5092647;28;20048;-75
2022/11/23 11:30:24;;;;;;;20.80;5.78;;;9.90;99.90;;;;;;5092173;28;20186;-76
2022/11/23 11:33:25;;;;;;;23.77;6.75;;;10.30;99.90;;;;;;5075263;28;20439;-77
2022/11/23 11:35:54;;;;;;;19.38;5.25;;;10.00;99.90;;;;;;5070716;28;20408;-85
2022/11/23 11:38:35;;;;;;;12.57;4.82;;;10.20;99.90;;;;;;5093547;28;20051;-77
2022/11/23 11:41:24;;;;;;;15.77;4.75;;;10.70;99.90;;;;;;5093412;28;20094;-76
2022/11/23 11:44:01;;;;;;;18.08;4.85;;;10.30;99.90;;;;;;5091943;28;20051;-75
2022/11/23 11:46:35;;;;;;;21.33;5.20;;;9.80;99.90;;;;;;5093414;28;20052;-76
2022/11/23 11:49:14;;;;;;;15.43;4.18;;;9.90;99.90;;;;;;5091716;28;20494;-76
2022/11/23 11:51:45;;;;;;;13.50;4.47;;;10.00;99.90;;;;;;5093333;28;20052;-75
2022/11/23 11:54:28;;;;;;;21.08;4.38;;;10.50;99.90;;;;;;5093350;28;20052;-75
2022/11/23 11:57:14;;;;;;;19.13;4.35;;;9.70;99.90;;;;;;5075356;28;20052;-75
2022/11/23 11:59:43;;;;;;;15.27;4.27;;;9.60;99.90;;;;;;5093009;28;20052;-76
2022/11/23 12:02:23;;;;;;;18.55;5.00;;;9.80;99.90;;;;;;5092100;28;20864;-76
2022/11/23 12:05:01;;;;;;;11.40;3.95;;;10.50;99.90;;;;;;5092078;28;20105;-76
2022/11/23 12:07:28;;;;;;;23.23;4.57;;;10.40;99.90;;;;;;5092045;28;20125;-76
2022/11/23 12:10:02;;;;;;;11.15;3.53;;;10.30;99.90;;;;;;5091365;28;20476;-76
2022/11/23 12:12:28;;;;;;;12.95;4.07;;;10.40;99.90;;;;;;5092785;28;20048;-76
2022/11/23 12:14:54;;;;;;;;;;;10.40;99.90;;;;;;5092168;28;20130;-77
2022/11/23 12:17:30;;;;;;;14.25;3.63;;;10.90;99.90;;;;;;5091962;28;19974;-76
2022/11/23 12:20:22;;;;;;;15.50;3.23;;;10.70;99.90;;;;;;5093057;28;20044;-76
2022/11/23 12:23:29;;;;;;;16.55;3.55;;;10.40;99.90;;;;;;5093123;28;20060;-76
2022/11/23 12:26:27;;;;;;;17.55;3.55;;;10.50;99.90;;;;;;5063022;28;20135;-75
2022/11/23 12:29:10;;;;;;;15.95;3.53;;;10.30;99.90;;;;;;5090805;28;20068;-76
2022/11/23 12:31:48;;;;;;;15.13;3.10;;;10.30;99.90;;;;;;5091444;28;20048;-75
2022/11/23 12:34:36;;;;;;;23.92;3.75;;;10.70;99.90;;;;;;5091142;28;20407;-76
2022/11/23 12:37:17;;;;;;;12.65;2.90;;;10.70;99.90;;;;;;5092282;28;20058;-75
2022/11/23 12:40:07;;;;;;;12.80;3.22;;;11.30;99.90;;;;;;5091649;28;20055;-75
2022/11/23 12:42:51;;;;;;;15.82;3.50;;;11.20;99.90;;;;;;5091262;28;20056;-76
2022/11/23 12:45:35;;;;;;;11.77;2.80;;;11.50;99.90;;;;;;5092579;28;20052;-76
2022/11/23 12:48:07;;;;;;;17.42;2.70;;;11.50;99.90;;;;;;5091402;28;20495;-75
2022/11/23 12:50:40;;;;;;;15.80;3.10;;;11.90;99.90;;;;;;5090974;28;20040;-76
2022/11/23 12:53:35;;;;;;;15.45;3.38;;;12.00;99.90;;;;;;5092515;28;20048;-78